Terminal Aerodrome Forecast
Issued by NWS Lake Charles, LA

Home | Current Version | Previous Version | Text Only | Print | Product List | Glossary On
Versions: 1 2 3 4 5 6 7 8 9 10 11 12 13 14
000
FTUS44 KLCH 230520
TAFAEX
TAF
KAEX 230520Z 2306/2406 VRB03KT P6SM FEW035 BKN250
     FM231700 23007KT P6SM VCSH FEW022 BKN045 BKN250
      TEMPO 2318/2322 VRB13G20KT 2SM -TSRA SCT020 BKN030CB
     FM240100 VRB05KT P6SM FEW050 BKN250=

USA.gov is the U.S. government's official web portal to all federal, state and local government web resources and services.